sensor_id;sensor_type;location;lat;lon;timestamp;P1;durP1;ratioP1;P2;durP2;ratioP2
16522;SDS011;19889;52.546;13.348;2022-11-20T00:01:07;338.70;;;63.73;;
16522;SDS011;19889;52.546;13.348;2022-11-20T00:03:36;344.03;;;64.50;;
16522;SDS011;19889;52.546;13.348;2022-11-20T00:06:05;343.37;;;65.77;;
16522;SDS011;19889;52.546;13.348;2022-11-20T00:08:33;337.67;;;63.00;;
16522;SDS011;19889;52.546;13.348;2022-11-20T00:11:02;340.10;;;63.63;;
16522;SDS011;19889;52.546;13.348;2022-11-20T00:13:30;351.30;;;67.37;;
16522;SDS011;19889;52.546;13.348;2022-11-20T00:15:57;354.23;;;70.13;;
16522;SDS011;19889;52.546;13.348;2022-11-20T00:18:25;348.20;;;66.30;;
16522;SDS011;19889;52.546;13.348;2022-11-20T00:20:52;351.20;;;68.50;;
16522;SDS011;19889;52.546;13.348;2022-11-20T00:23:20;366.60;;;76.27;;
16522;SDS011;19889;52.546;13.348;2022-11-20T00:25:48;345.87;;;66.30;;
16522;SDS011;19889;52.546;13.348;2022-11-20T00:28:15;348.00;;;67.50;;
16522;SDS011;19889;52.546;13.348;2022-11-20T00:30:43;346.73;;;66.40;;
16522;SDS011;19889;52.546;13.348;2022-11-20T00:33:09;357.77;;;73.90;;
16522;SDS011;19889;52.546;13.348;2022-11-20T00:35:36;344.83;;;63.20;;
16522;SDS011;19889;52.546;13.348;2022-11-20T00:38:03;352.20;;;68.57;;
16522;SDS011;19889;52.546;13.348;2022-11-20T00:40:32;341.77;;;65.67;;
16522;SDS011;19889;52.546;13.348;2022-11-20T00:42:59;351.43;;;68.93;;
16522;SDS011;19889;52.546;13.348;2022-11-20T00:45:25;350.43;;;67.37;;
16522;SDS011;19889;52.546;13.348;2022-11-20T00:47:52;344.00;;;66.47;;
16522;SDS011;19889;52.546;13.348;2022-11-20T00:50:19;342.97;;;64.73;;
16522;SDS011;19889;52.546;13.348;2022-11-20T00:52:46;343.33;;;63.60;;
16522;SDS011;19889;52.546;13.348;2022-11-20T00:55:13;346.03;;;65.60;;
16522;SDS011;19889;52.546;13.348;2022-11-20T00:57:41;348.50;;;67.40;;
16522;SDS011;19889;52.546;13.348;2022-11-20T01:00:10;344.03;;;67.03;;
16522;SDS011;19889;52.546;13.348;2022-11-20T01:02:37;351.40;;;67.60;;
16522;SDS011;19889;52.546;13.348;2022-11-20T01:05:04;338.67;;;63.43;;
16522;SDS011;19889;52.546;13.348;2022-11-20T01:07:32;347.50;;;67.40;;
16522;SDS011;19889;52.546;13.348;2022-11-20T01:09:58;346.13;;;66.87;;
16522;SDS011;19889;52.546;13.348;2022-11-20T01:12:25;343.47;;;65.53;;
16522;SDS011;19889;52.546;13.348;2022-11-20T01:14:54;354.87;;;70.07;;
16522;SDS011;19889;52.546;13.348;2022-11-20T01:17:21;342.33;;;65.73;;
16522;SDS011;19889;52.546;13.348;2022-11-20T01:19:48;348.73;;;67.17;;
16522;SDS011;19889;52.546;13.348;2022-11-20T01:22:15;355.00;;;69.87;;
16522;SDS011;19889;52.546;13.348;2022-11-20T01:24:42;352.20;;;70.10;;
16522;SDS011;19889;52.546;13.348;2022-11-20T01:27:09;346.77;;;66.80;;
16522;SDS011;19889;52.546;13.348;2022-11-20T01:29:36;349.80;;;69.07;;
16522;SDS011;19889;52.546;13.348;2022-11-20T01:32:05;337.87;;;64.47;;
16522;SDS011;19889;52.546;13.348;2022-11-20T01:34:32;345.30;;;65.10;;
16522;SDS011;19889;52.546;13.348;2022-11-20T01:36:59;345.43;;;67.37;;
16522;SDS011;19889;52.546;13.348;2022-11-20T01:39:26;357.40;;;71.73;;
16522;SDS011;19889;52.546;13.348;2022-11-20T01:41:53;354.73;;;71.77;;
16522;SDS011;19889;52.546;13.348;2022-11-20T01:44:42;348.97;;;70.97;;
16522;SDS011;19889;52.546;13.348;2022-11-20T01:47:16;354.80;;;72.47;;
16522;SDS011;19889;52.546;13.348;2022-11-20T01:49:46;347.50;;;70.07;;
16522;SDS011;19889;52.546;13.348;2022-11-20T01:52:17;342.97;;;66.67;;
16522;SDS011;19889;52.546;13.348;2022-11-20T01:54:48;348.53;;;69.90;;
16522;SDS011;19889;52.546;13.348;2022-11-20T01:57:20;356.07;;;73.00;;
16522;SDS011;19889;52.546;13.348;2022-11-20T01:59:49;347.53;;;71.27;;
16522;SDS011;19889;52.546;13.348;2022-11-20T02:02:21;347.17;;;67.93;;
16522;SDS011;19889;52.546;13.348;2022-11-20T02:04:49;349.83;;;68.70;;
16522;SDS011;19889;52.546;13.348;2022-11-20T02:07:20;353.60;;;71.27;;
16522;SDS011;19889;52.546;13.348;2022-11-20T02:09:49;349.03;;;69.57;;
16522;SDS011;19889;52.546;13.348;2022-11-20T02:12:16;352.40;;;71.10;;
16522;SDS011;19889;52.546;13.348;2022-11-20T02:14:57;362.27;;;75.27;;
16522;SDS011;19889;52.546;13.348;2022-11-20T02:17:25;348.03;;;70.43;;
16522;SDS011;19889;52.546;13.348;2022-11-20T02:19:53;353.10;;;70.50;;
16522;SDS011;19889;52.546;13.348;2022-11-20T02:22:21;363.83;;;78.37;;
16522;SDS011;19889;52.546;13.348;2022-11-20T02:25:05;346.27;;;67.60;;
16522;SDS011;19889;52.546;13.348;2022-11-20T02:27:34;340.97;;;66.60;;
16522;SDS011;19889;52.546;13.348;2022-11-20T02:30:02;352.37;;;71.37;;
16522;SDS011;19889;52.546;13.348;2022-11-20T02:32:33;355.63;;;72.97;;
16522;SDS011;19889;52.546;13.348;2022-11-20T02:35:06;348.77;;;68.37;;
16522;SDS011;19889;52.546;13.348;2022-11-20T02:37:35;354.87;;;70.20;;
16522;SDS011;19889;52.546;13.348;2022-11-20T02:40:07;349.07;;;71.20;;
16522;SDS011;19889;52.546;13.348;2022-11-20T02:42:34;347.23;;;68.33;;
16522;SDS011;19889;52.546;13.348;2022-11-20T02:45:04;350.33;;;69.87;;
16522;SDS011;19889;52.546;13.348;2022-11-20T02:47:32;352.47;;;68.43;;
16522;SDS011;19889;52.546;13.348;2022-11-20T02:49:59;350.50;;;70.83;;
16522;SDS011;19889;52.546;13.348;2022-11-20T02:52:26;353.63;;;70.83;;
16522;SDS011;19889;52.546;13.348;2022-11-20T02:54:53;357.37;;;73.63;;
16522;SDS011;19889;52.546;13.348;2022-11-20T02:57:21;358.50;;;72.80;;
16522;SDS011;19889;52.546;13.348;2022-11-20T02:59:48;351.83;;;71.57;;
16522;SDS011;19889;52.546;13.348;2022-11-20T03:02:15;351.17;;;70.47;;
16522;SDS011;19889;52.546;13.348;2022-11-20T03:04:42;358.83;;;75.23;;
16522;SDS011;19889;52.546;13.348;2022-11-20T03:07:09;360.17;;;74.33;;
16522;SDS011;19889;52.546;13.348;2022-11-20T03:09:36;351.13;;;69.83;;
16522;SDS011;19889;52.546;13.348;2022-11-20T03:12:03;351.10;;;71.53;;
16522;SDS011;19889;52.546;13.348;2022-11-20T03:14:32;358.10;;;75.40;;
16522;SDS011;19889;52.546;13.348;2022-11-20T03:16:59;343.67;;;66.17;;
16522;SDS011;19889;52.546;13.348;2022-11-20T03:19:26;356.47;;;74.77;;
16522;SDS011;19889;52.546;13.348;2022-11-20T03:21:53;348.07;;;69.27;;
16522;SDS011;19889;52.546;13.348;2022-11-20T03:24:20;351.00;;;68.57;;
16522;SDS011;19889;52.546;13.348;2022-11-20T03:26:46;361.17;;;76.37;;
16522;SDS011;19889;52.546;13.348;2022-11-20T03:29:13;360.77;;;74.07;;
16522;SDS011;19889;52.546;13.348;2022-11-20T03:31:42;359.87;;;75.50;;
16522;SDS011;19889;52.546;13.348;2022-11-20T03:34:09;351.20;;;69.90;;
16522;SDS011;19889;52.546;13.348;2022-11-20T03:36:37;343.87;;;67.03;;
16522;SDS011;19889;52.546;13.348;2022-11-20T03:39:05;352.10;;;69.20;;
16522;SDS011;19889;52.546;13.348;2022-11-20T03:41:35;355.03;;;72.30;;
16522;SDS011;19889;52.546;13.348;2022-11-20T03:44:05;344.87;;;67.93;;
16522;SDS011;19889;52.546;13.348;2022-11-20T03:46:34;351.17;;;69.90;;
16522;SDS011;19889;52.546;13.348;2022-11-20T03:49:03;346.13;;;65.60;;
16522;SDS011;19889;52.546;13.348;2022-11-20T03:51:31;360.37;;;78.13;;
16522;SDS011;19889;52.546;13.348;2022-11-20T03:53:59;348.97;;;71.47;;
16522;SDS011;19889;52.546;13.348;2022-11-20T03:56:27;370.73;;;80.50;;
16522;SDS011;19889;52.546;13.348;2022-11-20T03:58:56;349.77;;;70.77;;
16522;SDS011;19889;52.546;13.348;2022-11-20T04:01:24;349.63;;;69.63;;
16522;SDS011;19889;52.546;13.348;2022-11-20T04:03:53;356.17;;;74.30;;
16522;SDS011;19889;52.546;13.348;2022-11-20T04:06:23;339.10;;;65.50;;
16522;SDS011;19889;52.546;13.348;2022-11-20T04:08:53;361.70;;;74.83;;
16522;SDS011;19889;52.546;13.348;2022-11-20T04:11:21;349.57;;;72.40;;
16522;SDS011;19889;52.546;13.348;2022-11-20T04:13:50;357.03;;;73.67;;
16522;SDS011;19889;52.546;13.348;2022-11-20T04:16:18;347.87;;;67.20;;
16522;SDS011;19889;52.546;13.348;2022-11-20T04:18:46;346.63;;;68.87;;
16522;SDS011;19889;52.546;13.348;2022-11-20T04:21:13;350.07;;;71.23;;
16522;SDS011;19889;52.546;13.348;2022-11-20T04:23:41;349.17;;;68.83;;
16522;SDS011;19889;52.546;13.348;2022-11-20T04:26:08;353.23;;;71.43;;
16522;SDS011;19889;52.546;13.348;2022-11-20T04:28:37;354.53;;;73.37;;
16522;SDS011;19889;52.546;13.348;2022-11-20T04:31:05;357.03;;;73.00;;
16522;SDS011;19889;52.546;13.348;2022-11-20T04:33:33;356.90;;;74.43;;
16522;SDS011;19889;52.546;13.348;2022-11-20T04:36:01;358.20;;;75.73;;
16522;SDS011;19889;52.546;13.348;2022-11-20T04:38:29;350.07;;;70.23;;
16522;SDS011;19889;52.546;13.348;2022-11-20T04:40:58;355.47;;;74.40;;
16522;SDS011;19889;52.546;13.348;2022-11-20T04:43:26;354.93;;;74.87;;
16522;SDS011;19889;52.546;13.348;2022-11-20T04:45:54;358.63;;;74.37;;
16522;SDS011;19889;52.546;13.348;2022-11-20T04:48:21;359.13;;;71.07;;
16522;SDS011;19889;52.546;13.348;2022-11-20T04:50:49;346.33;;;68.93;;
16522;SDS011;19889;52.546;13.348;2022-11-20T04:53:16;364.83;;;78.50;;
16522;SDS011;19889;52.546;13.348;2022-11-20T04:55:44;343.70;;;66.13;;
16522;SDS011;19889;52.546;13.348;2022-11-20T04:58:13;345.57;;;68.87;;
16522;SDS011;19889;52.546;13.348;2022-11-20T05:00:40;349.00;;;69.33;;
16522;SDS011;19889;52.546;13.348;2022-11-20T05:03:07;364.67;;;76.27;;
16522;SDS011;19889;52.546;13.348;2022-11-20T05:05:34;346.23;;;70.10;;
16522;SDS011;19889;52.546;13.348;2022-11-20T05:08:01;348.47;;;71.57;;
16522;SDS011;19889;52.546;13.348;2022-11-20T05:10:28;337.90;;;64.77;;
16522;SDS011;19889;52.546;13.348;2022-11-20T05:12:56;341.77;;;67.97;;
16522;SDS011;19889;52.546;13.348;2022-11-20T05:15:24;369.73;;;78.50;;
16522;SDS011;19889;52.546;13.348;2022-11-20T05:17:52;356.63;;;73.33;;
16522;SDS011;19889;52.546;13.348;2022-11-20T05:20:19;344.37;;;68.83;;
16522;SDS011;19889;52.546;13.348;2022-11-20T05:22:46;353.50;;;72.17;;
16522;SDS011;19889;52.546;13.348;2022-11-20T05:25:13;346.13;;;68.73;;
16522;SDS011;19889;52.546;13.348;2022-11-20T05:27:40;356.70;;;74.70;;
16522;SDS011;19889;52.546;13.348;2022-11-20T05:30:08;348.90;;;69.57;;
16522;SDS011;19889;52.546;13.348;2022-11-20T05:32:37;346.40;;;69.33;;
16522;SDS011;19889;52.546;13.348;2022-11-20T05:35:04;353.40;;;74.00;;
16522;SDS011;19889;52.546;13.348;2022-11-20T05:37:31;347.03;;;69.13;;
16522;SDS011;19889;52.546;13.348;2022-11-20T05:39:58;352.73;;;71.67;;
16522;SDS011;19889;52.546;13.348;2022-11-20T05:42:25;354.47;;;70.67;;
16522;SDS011;19889;52.546;13.348;2022-11-20T05:44:58;355.20;;;73.63;;
16522;SDS011;19889;52.546;13.348;2022-11-20T05:47:27;372.90;;;80.43;;
16522;SDS011;19889;52.546;13.348;2022-11-20T05:49:58;353.53;;;70.73;;
16522;SDS011;19889;52.546;13.348;2022-11-20T05:52:27;358.73;;;73.50;;
16522;SDS011;19889;52.546;13.348;2022-11-20T05:54:54;348.93;;;70.93;;
16522;SDS011;19889;52.546;13.348;2022-11-20T05:57:21;338.77;;;66.80;;
16522;SDS011;19889;52.546;13.348;2022-11-20T05:59:48;356.00;;;74.10;;
16522;SDS011;19889;52.546;13.348;2022-11-20T06:02:15;353.10;;;72.43;;
16522;SDS011;19889;52.546;13.348;2022-11-20T06:04:42;345.47;;;68.67;;
16522;SDS011;19889;52.546;13.348;2022-11-20T06:07:11;352.00;;;72.20;;
16522;SDS011;19889;52.546;13.348;2022-11-20T06:09:37;342.53;;;65.23;;
16522;SDS011;19889;52.546;13.348;2022-11-20T06:12:05;360.50;;;76.60;;
16522;SDS011;19889;52.546;13.348;2022-11-20T06:14:32;353.13;;;72.17;;
16522;SDS011;19889;52.546;13.348;2022-11-20T06:16:59;361.17;;;75.77;;
16522;SDS011;19889;52.546;13.348;2022-11-20T06:19:26;350.53;;;70.90;;
16522;SDS011;19889;52.546;13.348;2022-11-20T06:21:54;347.53;;;72.50;;
16522;SDS011;19889;52.546;13.348;2022-11-20T06:24:22;345.17;;;68.73;;
16522;SDS011;19889;52.546;13.348;2022-11-20T06:26:50;363.00;;;78.67;;
16522;SDS011;19889;52.546;13.348;2022-11-20T06:29:17;343.17;;;66.50;;
16522;SDS011;19889;52.546;13.348;2022-11-20T06:31:44;346.80;;;68.60;;
16522;SDS011;19889;52.546;13.348;2022-11-20T06:34:11;346.17;;;69.80;;
16522;SDS011;19889;52.546;13.348;2022-11-20T06:36:38;349.40;;;72.53;;
16522;SDS011;19889;52.546;13.348;2022-11-20T06:39:05;357.17;;;74.07;;
16522;SDS011;19889;52.546;13.348;2022-11-20T06:41:33;364.10;;;78.53;;
16522;SDS011;19889;52.546;13.348;2022-11-20T06:44:00;357.90;;;77.10;;
16522;SDS011;19889;52.546;13.348;2022-11-20T06:46:27;346.67;;;68.10;;
16522;SDS011;19889;52.546;13.348;2022-11-20T06:48:54;350.03;;;70.97;;
16522;SDS011;19889;52.546;13.348;2022-11-20T06:51:20;346.90;;;68.87;;
16522;SDS011;19889;52.546;13.348;2022-11-20T06:53:47;351.17;;;73.33;;
16522;SDS011;19889;52.546;13.348;2022-11-20T06:56:14;357.27;;;74.60;;
16522;SDS011;19889;52.546;13.348;2022-11-20T06:58:43;353.57;;;70.47;;
16522;SDS011;19889;52.546;13.348;2022-11-20T07:01:11;345.40;;;71.20;;
16522;SDS011;19889;52.546;13.348;2022-11-20T07:03:39;353.67;;;76.60;;
16522;SDS011;19889;52.546;13.348;2022-11-20T07:06:07;348.73;;;72.20;;
16522;SDS011;19889;52.546;13.348;2022-11-20T07:08:34;354.80;;;71.40;;
16522;SDS011;19889;52.546;13.348;2022-11-20T07:11:02;350.27;;;72.80;;
16522;SDS011;19889;52.546;13.348;2022-11-20T07:13:31;360.23;;;78.03;;
16522;SDS011;19889;52.546;13.348;2022-11-20T07:16:00;354.80;;;73.47;;
16522;SDS011;19889;52.546;13.348;2022-11-20T07:18:28;351.43;;;72.60;;
16522;SDS011;19889;52.546;13.348;2022-11-20T07:20:55;347.20;;;70.33;;
16522;SDS011;19889;52.546;13.348;2022-11-20T07:23:25;365.83;;;82.27;;
16522;SDS011;19889;52.546;13.348;2022-11-20T07:25:52;39.80;;;24.17;;
16522;SDS011;19889;52.546;13.348;2022-11-20T07:28:19;28.67;;;16.53;;
16522;SDS011;19889;52.546;13.348;2022-11-20T07:30:49;46.90;;;26.53;;
16522;SDS011;19889;52.546;13.348;2022-11-20T07:33:18;31.30;;;17.47;;
16522;SDS011;19889;52.546;13.348;2022-11-20T07:35:45;32.77;;;18.43;;
16522;SDS011;19889;52.546;13.348;2022-11-20T07:38:12;36.50;;;18.00;;
16522;SDS011;19889;52.546;13.348;2022-11-20T07:40:39;22.83;;;11.33;;
16522;SDS011;19889;52.546;13.348;2022-11-20T07:43:06;38.70;;;19.97;;
16522;SDS011;19889;52.546;13.348;2022-11-20T07:45:33;26.20;;;14.17;;
16522;SDS011;19889;52.546;13.348;2022-11-20T07:48:00;360.27;;;81.07;;
16522;SDS011;19889;52.546;13.348;2022-11-20T07:50:29;207.13;;;44.47;;
16522;SDS011;19889;52.546;13.348;2022-11-20T07:53:00;357.93;;;75.93;;
16522;SDS011;19889;52.546;13.348;2022-11-20T07:55:28;354.33;;;77.40;;
16522;SDS011;19889;52.546;13.348;2022-11-20T07:57:55;292.27;;;72.40;;
16522;SDS011;19889;52.546;13.348;2022-11-20T08:00:23;279.90;;;65.83;;
16522;SDS011;19889;52.546;13.348;2022-11-20T08:02:51;375.23;;;89.57;;
16522;SDS011;19889;52.546;13.348;2022-11-20T08:05:18;369.20;;;89.37;;
16522;SDS011;19889;52.546;13.348;2022-11-20T08:07:46;267.73;;;62.27;;
16522;SDS011;19889;52.546;13.348;2022-11-20T08:10:14;362.87;;;83.97;;
16522;SDS011;19889;52.546;13.348;2022-11-20T08:12:45;287.10;;;71.40;;
16522;SDS011;19889;52.546;13.348;2022-11-20T08:15:31;368.23;;;90.30;;
16522;SDS011;19889;52.546;13.348;2022-11-20T08:17:59;278.83;;;64.23;;
16522;SDS011;19889;52.546;13.348;2022-11-20T08:20:29;274.70;;;62.00;;
16522;SDS011;19889;52.546;13.348;2022-11-20T08:23:01;273.20;;;61.23;;
16522;SDS011;19889;52.546;13.348;2022-11-20T08:25:31;366.40;;;84.53;;
16522;SDS011;19889;52.546;13.348;2022-11-20T08:27:58;297.93;;;64.00;;
16522;SDS011;19889;52.546;13.348;2022-11-20T08:30:26;347.90;;;84.57;;
16522;SDS011;19889;52.546;13.348;2022-11-20T08:32:53;398.67;;;72.33;;
16522;SDS011;19889;52.546;13.348;2022-11-20T08:35:21;399.03;;;76.83;;
16522;SDS011;19889;52.546;13.348;2022-11-20T08:37:48;393.83;;;71.50;;
16522;SDS011;19889;52.546;13.348;2022-11-20T08:40:16;406.10;;;83.30;;
16522;SDS011;19889;52.546;13.348;2022-11-20T08:42:47;399.83;;;77.57;;
16522;SDS011;19889;52.546;13.348;2022-11-20T08:45:14;403.87;;;76.37;;
16522;SDS011;19889;52.546;13.348;2022-11-20T08:47:42;401.87;;;75.80;;
16522;SDS011;19889;52.546;13.348;2022-11-20T08:50:09;399.43;;;75.53;;
16522;SDS011;19889;52.546;13.348;2022-11-20T08:52:36;398.53;;;72.63;;
16522;SDS011;19889;52.546;13.348;2022-11-20T08:55:04;400.77;;;75.03;;
16522;SDS011;19889;52.546;13.348;2022-11-20T08:57:33;399.30;;;72.73;;
16522;SDS011;19889;52.546;13.348;2022-11-20T09:00:02;402.93;;;79.87;;
16522;SDS011;19889;52.546;13.348;2022-11-20T09:02:30;404.33;;;80.73;;
16522;SDS011;19889;52.546;13.348;2022-11-20T09:04:57;401.10;;;75.53;;
16522;SDS011;19889;52.546;13.348;2022-11-20T09:07:24;401.10;;;77.57;;
16522;SDS011;19889;52.546;13.348;2022-11-20T09:09:52;401.03;;;73.50;;
16522;SDS011;19889;52.546;13.348;2022-11-20T09:12:19;399.63;;;77.27;;
16522;SDS011;19889;52.546;13.348;2022-11-20T09:14:47;403.30;;;76.60;;
16522;SDS011;19889;52.546;13.348;2022-11-20T09:17:14;402.13;;;76.43;;
16522;SDS011;19889;52.546;13.348;2022-11-20T09:19:42;401.90;;;78.20;;
16522;SDS011;19889;52.546;13.348;2022-11-20T09:22:08;402.57;;;77.53;;
16522;SDS011;19889;52.546;13.348;2022-11-20T09:24:35;402.03;;;76.23;;
16522;SDS011;19889;52.546;13.348;2022-11-20T09:27:03;399.53;;;74.80;;
16522;SDS011;19889;52.546;13.348;2022-11-20T09:29:31;400.70;;;75.93;;
16522;SDS011;19889;52.546;13.348;2022-11-20T09:31:59;518.93;;;200.07;;
16522;SDS011;19889;52.546;13.348;2022-11-20T09:34:26;438.87;;;108.57;;
16522;SDS011;19889;52.546;13.348;2022-11-20T09:36:53;409.83;;;81.53;;
16522;SDS011;19889;52.546;13.348;2022-11-20T09:39:20;404.43;;;81.37;;
16522;SDS011;19889;52.546;13.348;2022-11-20T09:44:48;402.53;;;76.17;;
16522;SDS011;19889;52.546;13.348;2022-11-20T09:47:35;405.83;;;76.17;;
16522;SDS011;19889;52.546;13.348;2022-11-20T09:50:19;390.57;;;71.13;;
16522;SDS011;19889;52.546;13.348;2022-11-20T09:52:55;380.43;;;82.13;;
16522;SDS011;19889;52.546;13.348;2022-11-20T09:55:34;365.77;;;73.07;;
16522;SDS011;19889;52.546;13.348;2022-11-20T09:58:04;364.23;;;74.47;;
16522;SDS011;19889;52.546;13.348;2022-11-20T10:00:33;366.53;;;75.50;;
16522;SDS011;19889;52.546;13.348;2022-11-20T10:03:05;379.60;;;80.33;;
16522;SDS011;19889;52.546;13.348;2022-11-20T10:05:40;359.07;;;69.00;;
16522;SDS011;19889;52.546;13.348;2022-11-20T10:08:13;374.30;;;77.57;;
16522;SDS011;19889;52.546;13.348;2022-11-20T10:10:44;363.93;;;70.33;;
16522;SDS011;19889;52.546;13.348;2022-11-20T10:13:16;374.00;;;77.73;;
16522;SDS011;19889;52.546;13.348;2022-11-20T10:15:53;368.10;;;79.43;;
16522;SDS011;19889;52.546;13.348;2022-11-20T10:18:39;355.00;;;67.17;;
16522;SDS011;19889;52.546;13.348;2022-11-20T10:21:17;360.40;;;69.03;;
16522;SDS011;19889;52.546;13.348;2022-11-20T10:23:56;351.77;;;67.10;;
16522;SDS011;19889;52.546;13.348;2022-11-20T10:26:47;357.47;;;67.53;;
16522;SDS011;19889;52.546;13.348;2022-11-20T10:29:21;359.50;;;66.97;;
16522;SDS011;19889;52.546;13.348;2022-11-20T10:31:56;361.47;;;70.77;;
16522;SDS011;19889;52.546;13.348;2022-11-20T10:34:30;357.83;;;67.70;;
16522;SDS011;19889;52.546;13.348;2022-11-20T10:37:02;361.00;;;68.17;;
16522;SDS011;19889;52.546;13.348;2022-11-20T10:39:38;367.87;;;69.40;;
16522;SDS011;19889;52.546;13.348;2022-11-20T10:42:11;363.07;;;67.67;;
16522;SDS011;19889;52.546;13.348;2022-11-20T10:44:47;364.97;;;69.07;;
16522;SDS011;19889;52.546;13.348;2022-11-20T10:47:27;362.00;;;67.07;;
16522;SDS011;19889;52.546;13.348;2022-11-20T10:49:58;360.43;;;68.87;;
16522;SDS011;19889;52.546;13.348;2022-11-20T10:52:32;363.17;;;69.90;;
16522;SDS011;19889;52.546;13.348;2022-11-20T10:55:06;354.13;;;66.53;;
16522;SDS011;19889;52.546;13.348;2022-11-20T10:57:46;362.93;;;69.40;;
16522;SDS011;19889;52.546;13.348;2022-11-20T11:00:19;364.20;;;68.87;;
16522;SDS011;19889;52.546;13.348;2022-11-20T11:02:46;368.17;;;74.90;;
16522;SDS011;19889;52.546;13.348;2022-11-20T11:05:18;352.40;;;66.53;;
16522;SDS011;19889;52.546;13.348;2022-11-20T11:07:52;356.17;;;70.60;;
16522;SDS011;19889;52.546;13.348;2022-11-20T11:10:22;362.83;;;72.17;;
16522;SDS011;19889;52.546;13.348;2022-11-20T11:12:55;362.80;;;73.53;;
16522;SDS011;19889;52.546;13.348;2022-11-20T11:15:26;362.93;;;71.53;;
16522;SDS011;19889;52.546;13.348;2022-11-20T11:17:54;371.20;;;75.90;;
16522;SDS011;19889;52.546;13.348;2022-11-20T11:20:24;366.43;;;71.30;;
16522;SDS011;19889;52.546;13.348;2022-11-20T11:22:53;367.87;;;73.77;;
16522;SDS011;19889;52.546;13.348;2022-11-20T11:25:22;364.93;;;70.27;;
16522;SDS011;19889;52.546;13.348;2022-11-20T11:27:52;365.60;;;69.10;;
16522;SDS011;19889;52.546;13.348;2022-11-20T11:30:21;364.47;;;70.80;;
16522;SDS011;19889;52.546;13.348;2022-11-20T11:32:51;376.23;;;77.63;;
16522;SDS011;19889;52.546;13.348;2022-11-20T11:35:30;365.07;;;72.97;;
16522;SDS011;19889;52.546;13.348;2022-11-20T11:38:02;369.87;;;74.00;;
16522;SDS011;19889;52.546;13.348;2022-11-20T11:57:40;366.90;;;74.80;;
16522;SDS011;19889;52.546;13.348;2022-11-20T12:00:14;350.90;;;66.57;;
16522;SDS011;19889;52.546;13.348;2022-11-20T12:02:48;367.63;;;73.47;;
16522;SDS011;19889;52.546;13.348;2022-11-20T12:05:23;376.93;;;76.83;;
16522;SDS011;19889;52.546;13.348;2022-11-20T12:07:52;367.37;;;76.37;;
16522;SDS011;19889;52.546;13.348;2022-11-20T12:10:28;379.87;;;81.87;;
16522;SDS011;19889;52.546;13.348;2022-11-20T12:13:08;365.93;;;74.13;;
16522;SDS011;19889;52.546;13.348;2022-11-20T12:15:47;366.10;;;74.03;;
16522;SDS011;19889;52.546;13.348;2022-11-20T12:18:15;365.10;;;73.37;;
16522;SDS011;19889;52.546;13.348;2022-11-20T12:20:45;370.77;;;75.37;;
16522;SDS011;19889;52.546;13.348;2022-11-20T12:23:22;494.80;;;160.87;;
16522;SDS011;19889;52.546;13.348;2022-11-20T12:25:55;458.67;;;151.40;;
16522;SDS011;19889;52.546;13.348;2022-11-20T12:28:31;394.33;;;91.27;;
16522;SDS011;19889;52.546;13.348;2022-11-20T12:31:19;377.13;;;80.67;;
16522;SDS011;19889;52.546;13.348;2022-11-20T12:34:13;374.40;;;77.70;;
16522;SDS011;19889;52.546;13.348;2022-11-20T12:36:53;364.73;;;73.17;;
16522;SDS011;19889;52.546;13.348;2022-11-20T12:39:35;370.33;;;75.70;;
16522;SDS011;19889;52.546;13.348;2022-11-20T12:42:13;372.50;;;74.63;;
16522;SDS011;19889;52.546;13.348;2022-11-20T12:45:17;376.13;;;79.20;;
16522;SDS011;19889;52.546;13.348;2022-11-20T12:48:08;362.13;;;72.57;;
16522;SDS011;19889;52.546;13.348;2022-11-20T12:51:05;371.00;;;74.23;;
16522;SDS011;19889;52.546;13.348;2022-11-20T12:53:45;377.23;;;79.43;;
16522;SDS011;19889;52.546;13.348;2022-11-20T12:56:23;363.17;;;72.43;;
16522;SDS011;19889;52.546;13.348;2022-11-20T12:59:02;370.07;;;74.17;;
16522;SDS011;19889;52.546;13.348;2022-11-20T13:01:44;370.80;;;73.33;;
16522;SDS011;19889;52.546;13.348;2022-11-20T13:04:19;361.27;;;70.07;;
16522;SDS011;19889;52.546;13.348;2022-11-20T13:06:57;378.50;;;79.03;;
16522;SDS011;19889;52.546;13.348;2022-11-20T13:09:25;362.17;;;72.63;;
16522;SDS011;19889;52.546;13.348;2022-11-20T13:11:56;393.47;;;91.77;;
16522;SDS011;19889;52.546;13.348;2022-11-20T13:14:32;362.77;;;71.03;;
16522;SDS011;19889;52.546;13.348;2022-11-20T13:17:06;367.27;;;74.00;;
16522;SDS011;19889;52.546;13.348;2022-11-20T13:19:40;358.40;;;68.70;;
16522;SDS011;19889;52.546;13.348;2022-11-20T13:22:07;370.30;;;76.23;;
16522;SDS011;19889;52.546;13.348;2022-11-20T13:24:35;368.03;;;75.53;;
16522;SDS011;19889;52.546;13.348;2022-11-20T13:27:03;365.73;;;73.03;;
16522;SDS011;19889;52.546;13.348;2022-11-20T13:29:43;362.20;;;72.40;;
16522;SDS011;19889;52.546;13.348;2022-11-20T13:32:14;370.83;;;75.53;;
16522;SDS011;19889;52.546;13.348;2022-11-20T13:34:52;389.33;;;85.97;;
16522;SDS011;19889;52.546;13.348;2022-11-20T13:37:24;940.37;;;378.33;;
16522;SDS011;19889;52.546;13.348;2022-11-20T13:40:04;1005.50;;;602.73;;
16522;SDS011;19889;52.546;13.348;2022-11-20T13:42:33;437.70;;;138.40;;
16522;SDS011;19889;52.546;13.348;2022-11-20T13:45:21;367.47;;;76.90;;
16522;SDS011;19889;52.546;13.348;2022-11-20T13:47:51;364.53;;;73.50;;
16522;SDS011;19889;52.546;13.348;2022-11-20T13:50:21;373.43;;;76.47;;
16522;SDS011;19889;52.546;13.348;2022-11-20T13:52:58;366.50;;;77.07;;
16522;SDS011;19889;52.546;13.348;2022-11-20T13:55:33;361.50;;;70.47;;
16522;SDS011;19889;52.546;13.348;2022-11-20T13:58:05;362.97;;;74.90;;
16522;SDS011;19889;52.546;13.348;2022-11-20T14:00:45;362.93;;;70.77;;
16522;SDS011;19889;52.546;13.348;2022-11-20T14:03:20;358.90;;;70.83;;
16522;SDS011;19889;52.546;13.348;2022-11-20T14:05:49;362.57;;;70.50;;
16522;SDS011;19889;52.546;13.348;2022-11-20T14:08:24;372.23;;;76.67;;
16522;SDS011;19889;52.546;13.348;2022-11-20T14:11:12;361.73;;;72.60;;
16522;SDS011;19889;52.546;13.348;2022-11-20T14:13:50;361.30;;;73.87;;
16522;SDS011;19889;52.546;13.348;2022-11-20T14:16:19;359.10;;;71.13;;
16522;SDS011;19889;52.546;13.348;2022-11-20T14:18:48;365.80;;;74.17;;
16522;SDS011;19889;52.546;13.348;2022-11-20T14:21:21;369.47;;;75.40;;
16522;SDS011;19889;52.546;13.348;2022-11-20T14:23:51;364.10;;;72.43;;
16522;SDS011;19889;52.546;13.348;2022-11-20T14:26:19;358.40;;;71.30;;
16522;SDS011;19889;52.546;13.348;2022-11-20T14:28:47;358.13;;;70.10;;
16522;SDS011;19889;52.546;13.348;2022-11-20T14:31:18;368.33;;;77.73;;
16522;SDS011;19889;52.546;13.348;2022-11-20T14:33:51;372.93;;;76.97;;